Startpagina
METAR-TAF:

METAR-TAF

Vliegvelden :

Neuquén, Argentinië

breedte: 38-57S, lengte: 068-08W, hoogte: 270 m

Actueel weer

Dit bericht is 18 minuten geleden gemaakt, om 18:00 UTC
Wind 11 kt uit het westzuidwesten met uitschieters tot 24 kt
Temperatuur 37°C
Vochtigheid 9%
Druk 1007 hPa
Zicht 10 km of meer
geen wolken onder 1500 m en geen cumulonimbus

METAR: SAZN 231800Z 25011G24KT CAVOK 37/M01 Q1007

Tijdstip: 15:18 (18:18 UTC)

Verwachting

Dit bericht is 1 uur en het 18 minuten geleden gemaakt, om 17:00 UTC
Verwachting geldig van 23 om 18 UTC tot 24 om 18 UTC
Wind 15 kt uit het westzuidwesten met uitschieters tot 25 kt
Zicht 10 km of meer
geen wolken onder 1500 m en geen cumulonimbus
Tijdelijke
van 23 om 19 UTC tot 23 om 23 UTC
Wind 25 kt uit het westzuidwesten met uitschieters tot 35 kt
Wijzigt naar
van 24 om 01 UTC tot 24 om 03 UTC
Wind 15 kt uit het westzuidwesten

TAF: SAZN 231700Z 2318/2418 25015G25KT CAVOK TX38/2318Z TN20/2408Z TEMPO 2319/2323 25025G35KT BECMG 2401/2403 24015KT

Waarnemingen en weersverwachtingen van meer dan 4000 vliegvelden (METAR en TAF).

De beschikbare stations zijn de gele en rode punten op de kaart.

Ga met uw muis naar het station om de naam te zien.

Klik dan om waarnemingen en weersverwachtingen te zien.

kaart wijzigen: klik op de groene knoppen met een zwart kruis om in te zoomen, op de groene knop met een streepje om uit te zoomen of op de groene pijlen voor aangrenzende kaarten.


METAR-TAF: